Marco Polo — C6JZ7 — position and weather

sailwx.info

Track history (hours):
 
Tides and Currents Weather Stations Pressure Air Temp Water Temp Dewpoint Dewpoint Depression Visibility Wind Speed Wind Dir Waves Ship Positions

Marco Polo

Operator: Orient Lines

Last reported at 2020-Jan-13 01:56 UTC. Time now 2020-Jan-18 19:52 UTC.
Position N 27°40' W 014°04'.

Type: Ship. MMSI: 308691456.

Date/timePositionNaut miles runAvg speedWind from/ knotsBaromVisibWave heightAir tempDewpointWater temp
2020-Jan-13 01:56N 27°40' W 014°04'1216.1
2020-Jan-13 01:11N 27°49' W 013°54'1116.3
2020-Jan-13 00:30N 27°57' W 013°46'  
2020-Jan-10 07:14N 36°53' W 009°36'8514.8
2020-Jan-10 01:30N 38°18' W 009°27'815.0
2020-Jan-10 01:00N 38°25' W 009°26'23 9.0
2020-Jan-09 22:28N 38°43' W 009°07'0 0.0
2020-Jan-09 18:58N 38°43' W 009°07'0 0.0
2020-Jan-09 17:28N 38°43' W 009°07'0 0.0
2020-Jan-09 14:28N 38°43' W 009°07'0 0.0
2020-Jan-09 09:11N 38°43' W 009°07'0 0.0
2020-Jan-09 09:00N 38°43' W 009°07'0 0.0
2020-Jan-09 08:30N 38°43' W 009°07'27 5.5
2020-Jan-09 03:30N 38°42' W 009°42'1414.0
2020-Jan-09 02:30N 38°56' W 009°45'63014.8
2020-Jan-07 07:51N 49°10' W 006°30'514.3
2020-Jan-07 07:30N 49°14' W 006°27'1614.3
2020-Jan-07 06:24N 49°28' W 006°17'1314.2
2020-Jan-07 05:27N 49°41' W 006°09'2114.3
2020-Jan-07 04:00N 50°01' W 006°02'2014.4
2020-Jan-07 02:37N 50°21' W 006°01'912.2
2020-Jan-07 01:53N 50°27' W 005°50'1112.6
2020-Jan-07 01:00N 50°34' W 005°37'612.6
2020-Jan-07 00:30N 50°39' W 005°30'612.5
2020-Jan-07 00:01N 50°42' W 005°23'1313.0
2020-Jan-06 23:00N 50°51' W 005°07'2613.1
2020-Jan-06 21:00N 51°08' W 004°35'6714.9
2020-Jan-06 16:30N 51°28' W 002°53'713.1
2020-Jan-06 16:00N 51°30' W 002°43'1 0.5
2020-Jan-06 15:01N 51°30' W 002°43'0 0.0
2020-Jan-06 12:58N 51°30' W 002°43'0 0.0
2020-Jan-06 12:28N 51°30' W 002°43'0 0.0
2020-Jan-06 09:28N 51°30' W 002°43'0 0.0
2020-Jan-06 08:58N 51°30' W 002°43'0 0.0
2020-Jan-06 07:28N 51°30' W 002°43'0 0.0
2020-Jan-06 03:58N 51°30' W 002°43'0 0.0
2020-Jan-06 03:28N 51°30' W 002°43'8 4.0
2020-Jan-06 01:30N 51°28' W 002°54'5114.4
2020-Jan-05 21:57N 51°21' W 004°16'5315.4
2020-Jan-05 18:30N 51°26' W 005°40'5914.9
2020-Jan-05 14:34N 51°36' W 007°13'2415.2
2020-Jan-05 13:01N 51°41' W 007°51'1514.8
2020-Jan-05 12:01N 51°45' W 008°14'7 4.4
2020-Jan-05 10:28N 51°51' W 008°18'0 0.0
2020-Jan-05 09:28N 51°51' W 008°18'0 0.0
2020-Jan-05 08:58N 51°51' W 008°18'0 0.0
2020-Jan-05 08:28N 51°51' W 008°18'0 0.0
2020-Jan-05 07:28N 51°51' W 008°18'0 0.0
2020-Jan-05 06:58N 51°51' W 008°18'0 0.0
2020-Jan-05 05:58N 51°51' W 008°18'0 0.0
2020-Jan-05 05:30N 51°51' W 008°18'  
Track history (hours):
 
Tides and Currents Weather Stations Pressure Air Temp Water Temp Dewpoint Dewpoint Depression Visibility Wind Speed Wind Dir Waves Ship Positions

Marco Polo

Operator: Orient Lines

Last reported at 2020-Jan-13 01:56 UTC. Time now 2020-Jan-18 19:52 UTC.
Position N 27°40' W 014°04'.

Type: Ship. MMSI: 308691456.

Date/timePositionNaut miles runAvg speedWind from/ knotsBaromVisibWave heightAir tempDewpointWater temp
2020-Jan-13 01:56N 27°40' W 014°04'1216.1
2020-Jan-13 01:11N 27°49' W 013°54'1116.3
2020-Jan-13 00:30N 27°57' W 013°46'  
2020-Jan-10 07:14N 36°53' W 009°36'8514.8
2020-Jan-10 01:30N 38°18' W 009°27'815.0
2020-Jan-10 01:00N 38°25' W 009°26'23 9.0
2020-Jan-09 22:28N 38°43' W 009°07'0 0.0
2020-Jan-09 18:58N 38°43' W 009°07'0 0.0
2020-Jan-09 17:28N 38°43' W 009°07'0 0.0
2020-Jan-09 14:28N 38°43' W 009°07'0 0.0
2020-Jan-09 09:11N 38°43' W 009°07'0 0.0
2020-Jan-09 09:00N 38°43' W 009°07'0 0.0
2020-Jan-09 08:30N 38°43' W 009°07'27 5.5
2020-Jan-09 03:30N 38°42' W 009°42'1414.0
2020-Jan-09 02:30N 38°56' W 009°45'63014.8
2020-Jan-07 07:51N 49°10' W 006°30'514.3
2020-Jan-07 07:30N 49°14' W 006°27'1614.3
2020-Jan-07 06:24N 49°28' W 006°17'1314.2
2020-Jan-07 05:27N 49°41' W 006°09'2114.3
2020-Jan-07 04:00N 50°01' W 006°02'2014.4
2020-Jan-07 02:37N 50°21' W 006°01'912.2
2020-Jan-07 01:53N 50°27' W 005°50'1112.6
2020-Jan-07 01:00N 50°34' W 005°37'612.6
2020-Jan-07 00:30N 50°39' W 005°30'612.5
2020-Jan-07 00:01N 50°42' W 005°23'1313.0
2020-Jan-06 23:00N 50°51' W 005°07'2613.1
2020-Jan-06 21:00N 51°08' W 004°35'6714.9
2020-Jan-06 16:30N 51°28' W 002°53'713.1
2020-Jan-06 16:00N 51°30' W 002°43'1 0.5
2020-Jan-06 15:01N 51°30' W 002°43'0 0.0
2020-Jan-06 12:58N 51°30' W 002°43'0 0.0
2020-Jan-06 12:28N 51°30' W 002°43'0 0.0
2020-Jan-06 09:28N 51°30' W 002°43'0 0.0
2020-Jan-06 08:58N 51°30' W 002°43'0 0.0
2020-Jan-06 07:28N 51°30' W 002°43'0 0.0
2020-Jan-06 03:58N 51°30' W 002°43'0 0.0
2020-Jan-06 03:28N 51°30' W 002°43'8 4.0
2020-Jan-06 01:30N 51°28' W 002°54'5114.4
2020-Jan-05 21:57N 51°21' W 004°16'5315.4
2020-Jan-05 18:30N 51°26' W 005°40'5914.9
2020-Jan-05 14:34N 51°36' W 007°13'2415.2
2020-Jan-05 13:01N 51°41' W 007°51'1514.8
2020-Jan-05 12:01N 51°45' W 008°14'7 4.4
2020-Jan-05 10:28N 51°51' W 008°18'0 0.0
2020-Jan-05 09:28N 51°51' W 008°18'0 0.0
2020-Jan-05 08:58N 51°51' W 008°18'0 0.0
2020-Jan-05 08:28N 51°51' W 008°18'0 0.0
2020-Jan-05 07:28N 51°51' W 008°18'0 0.0
2020-Jan-05 06:58N 51°51' W 008°18'0 0.0
2020-Jan-05 05:58N 51°51' W 008°18'0 0.0
2020-Jan-05 05:30N 51°51' W 008°18'  

Dump ship's entire track history